aviador You're here:

K0CO Decoded Metar

BERTHOUD PASS in CO, USA
Report Time2017-08-20 19:00:00
UTC Time2017-08-20 19:05:25
Flight Rules vfr VFR
Wind270° at 03 kt
W.Rank270° ranks 7
Current wind is below 270° avg. (16.8)
Visibility9999 m
Phenomena:N/A
Clouds:Broken 060 Hf
Overcast 070 Hf
Expected CloudBase > 1,200 ft AGL from Temp-Dew spread
Ceiling6,000 ft
Temp11°C (ISA +23)
Dew Point08°C (82% RH)
AAT9.5°C
QNH1039 hPa
Density Alt15,410 ft
Elevation13,494 ft
Report Wrong Elevation
Raw Report
K0CO 201900Z AUTO 27003KT 10SM BKN060 OVC070 11/08 A3068 RMK
AO2=

Extra information for K0CO:More info

Metar Taf Metar & Taf Last 4 Metars F.Rules Stats Wind Profile Meteogram Temp Stats Airport Information Weather charts Add Link Nearby VenuesMetar ALERT Operation Metar Decoded Social comments

AIRNAV info for K0CO